Sirius — WDA2145 — position and weather

sailwx.info

Track history (hours):
 
Tides and Currents Weather Stations Pressure Air Temp Water Temp Dewpoint Dewpoint Depression Visibility Wind Speed Wind Dir Waves Ship Positions

Sirius

Owner: TISBURY TOWING AND TRANSPORTATION INC, TISBURY, MA. More information available from US FCC via Universal Licensing System and Coast Guard Vessel Documentation Center.

Last reported at 2015-Jul-08 06:34 UTC. Time now 2015-Jul-08 06:37 UTC.
Position N 41°31' W 070°38'.

Length 19 m; draft 1.9 m.

Type: Towing. MMSI: 367181040.

Date/timePositionNaut miles runAvg speedWind from/ knotsBaromVisibWave heightAir tempDewpointWater temp
2015-Jul-08 06:34N 41°31' W 070°38'4 1.3
2015-Jul-08 03:33N 41°27' W 070°36'0 0.0
2015-Jul-08 02:26N 41°27' W 070°36'0 0.0
2015-Jul-08 01:31N 41°27' W 070°36'0 0.0
2015-Jul-08 00:25N 41°27' W 070°36'0 0.0
2015-Jul-07 23:31N 41°27' W 070°36'0 0.0
2015-Jul-07 22:29N 41°27' W 070°36'1 0.9
2015-Jul-07 21:33N 41°28' W 070°35'5 5.0
2015-Jul-07 20:33N 41°31' W 070°41'6 6.4
2015-Jul-07 19:33N 41°33' W 070°49'6 6.1
2015-Jul-07 18:33N 41°38' W 070°54'2 1.5
2015-Jul-07 17:31N 41°39' W 070°55'10 2.6
2015-Jul-07 13:33N 41°32' W 070°45'8 6.4
2015-Jul-07 12:15N 41°27' W 070°36'0 0.0
2015-Jul-07 11:28N 41°27' W 070°36'0 0.0
2015-Jul-07 10:33N 41°27' W 070°36'0 0.0
2015-Jul-07 09:33N 41°27' W 070°36'0 0.0
2015-Jul-07 08:33N 41°27' W 070°36'0 0.0
2015-Jul-07 07:31N 41°27' W 070°36'0 0.0
2015-Jul-07 06:33N 41°27' W 070°36'0 0.0
2015-Jul-07 05:33N 41°27' W 070°36'0 0.0
2015-Jul-07 04:33N 41°27' W 070°36'0 0.0
2015-Jul-07 03:33N 41°27' W 070°36'0 0.0
2015-Jul-07 02:33N 41°27' W 070°36'0 0.0
2015-Jul-07 01:33N 41°27' W 070°36'0 0.0
2015-Jul-07 00:32N 41°27' W 070°36'0 0.0
2015-Jul-06 23:33N 41°27' W 070°36'0 0.0
2015-Jul-06 22:33N 41°27' W 070°36'0 0.0
2015-Jul-06 21:33N 41°27' W 070°36'0 0.0
2015-Jul-06 20:33N 41°27' W 070°36'0 0.0
2015-Jul-06 19:32N 41°27' W 070°36'0 0.0
2015-Jul-06 18:33N 41°27' W 070°36'0 0.0
2015-Jul-06 17:33N 41°27' W 070°36'0 0.0
2015-Jul-06 16:33N 41°27' W 070°36'0 0.0
2015-Jul-06 15:33N 41°27' W 070°36'0 0.0
2015-Jul-06 14:33N 41°27' W 070°36'0 0.0
2015-Jul-06 13:33N 41°27' W 070°36'0 0.0
2015-Jul-06 12:33N 41°27' W 070°36'  
2015-Jul-03 16:29N 41°27' W 070°36'0 0.0
2015-Jul-03 14:13N 41°27' W 070°36'0 0.0
2015-Jul-03 11:33N 41°27' W 070°36'0 0.0
2015-Jul-03 10:33N 41°27' W 070°36'0 0.0
2015-Jul-03 09:33N 41°27' W 070°36'0 0.0
2015-Jul-03 08:22N 41°27' W 070°36'0 0.0
2015-Jul-03 07:33N 41°27' W 070°36'0 0.0
2015-Jul-03 06:33N 41°27' W 070°36'0 0.0
2015-Jul-03 05:33N 41°27' W 070°36'0 0.0
2015-Jul-03 04:31N 41°27' W 070°36'7 6.9
2015-Jul-03 03:33N 41°32' W 070°42'11 4.4
2015-Jul-03 01:06N 41°38' W 070°55'3 5.0
2015-Jul-03 00:33N 41°35' W 070°53'6 6.5
2015-Jul-02 23:33N 41°29' W 070°57'7 7.2
2015-Jul-02 22:33N 41°26' W 071°05'6 6.3
2015-Jul-02 21:33N 41°23' W 071°13'6 6.2
2015-Jul-02 20:33N 41°21' W 071°20'7 6.6
2015-Jul-02 19:33N 41°18' W 071°29'7 6.9
2015-Jul-02 18:33N 41°17' W 071°37'7 6.8
2015-Jul-02 17:33N 41°15' W 071°46'7 6.7
2015-Jul-02 16:33N 41°13' W 071°55'6 6.2
2015-Jul-02 15:33N 41°11' W 072°02'6 5.7
2015-Jul-02 14:33N 41°09' W 072°09'4 4.2
2015-Jul-02 13:33N 41°05' W 072°08'2 1.7
2015-Jul-02 12:33N 41°05' W 072°06'0 0.0
2015-Jul-02 11:33N 41°05' W 072°06'0 0.0
2015-Jul-02 10:33N 41°05' W 072°06'0 0.0
2015-Jul-02 09:33N 41°05' W 072°06'0 0.0
2015-Jul-02 08:33N 41°05' W 072°06'0 0.0
2015-Jul-02 07:33N 41°05' W 072°06'0 0.0
2015-Jul-02 06:33N 41°05' W 072°06'0 0.0
2015-Jul-02 05:33N 41°05' W 072°06'0 0.0
2015-Jul-02 04:33N 41°05' W 072°06'0 0.0
2015-Jul-02 03:33N 41°05' W 072°06'0 0.0
2015-Jul-02 02:33N 41°05' W 072°06'0 0.0
2015-Jul-02 01:33N 41°05' W 072°06'0 0.0
2015-Jul-02 00:33N 41°05' W 072°06'0 0.0
2015-Jul-01 23:33N 41°05' W 072°06'0 0.0
2015-Jul-01 22:33N 41°05' W 072°06'0 0.0
2015-Jul-01 21:33N 41°05' W 072°06'0 0.0
2015-Jul-01 20:33N 41°05' W 072°06'0 0.0
2015-Jul-01 19:33N 41°05' W 072°06'0 0.0
2015-Jul-01 18:33N 41°05' W 072°06'0 0.0
2015-Jul-01 17:33N 41°05' W 072°06'0 0.0
2015-Jul-01 16:33N 41°05' W 072°06'0 0.0
2015-Jul-01 15:33N 41°05' W 072°06'0 0.0
2015-Jul-01 14:33N 41°05' W 072°06'0 0.0
2015-Jul-01 13:33N 41°05' W 072°06'0 0.0
2015-Jul-01 12:33N 41°05' W 072°06'0 0.0
2015-Jul-01 11:33N 41°05' W 072°06'0 0.0
2015-Jul-01 10:32N 41°05' W 072°06'0 0.0
2015-Jul-01 09:33N 41°05' W 072°06'0 0.0
2015-Jul-01 08:33N 41°05' W 072°06'0 0.0
2015-Jul-01 07:33N 41°05' W 072°06'0 0.0
2015-Jul-01 06:33N 41°05' W 072°06'0 0.0
2015-Jul-01 05:17N 41°05' W 072°06'0 0.0
2015-Jul-01 04:33N 41°05' W 072°06'0 0.0
2015-Jul-01 03:33N 41°05' W 072°06'0 0.0
2015-Jul-01 02:33N 41°05' W 072°06'0 0.0
2015-Jul-01 01:33N 41°05' W 072°06'0 0.0
2015-Jul-01 00:33N 41°05' W 072°06'0 0.0
2015-Jun-30 23:33N 41°05' W 072°06'0 0.0
2015-Jun-30 22:33N 41°05' W 072°06'0 0.0
2015-Jun-30 21:33N 41°05' W 072°06'0 0.0
2015-Jun-30 20:33N 41°05' W 072°06'0 0.0
2015-Jun-30 19:33N 41°05' W 072°06'0 0.0
2015-Jun-30 18:33N 41°05' W 072°06'0 0.0
2015-Jun-30 17:33N 41°05' W 072°06'0 0.0
2015-Jun-30 16:33N 41°05' W 072°06'0 0.0
2015-Jun-30 15:21N 41°05' W 072°06'0 0.0
2015-Jun-30 14:33N 41°05' W 072°06'2 1.9
2015-Jun-30 13:33N 41°04' W 072°09'3 3.3
2015-Jun-30 12:34N 41°08' W 072°10'6 5.8
2015-Jun-30 11:33N 41°11' W 072°03'7 6.5
2015-Jun-30 10:33N 41°12' W 071°55'6 5.6
2015-Jun-30 09:33N 41°14' W 071°48'5 5.3
2015-Jun-30 08:33N 41°15' W 071°41'5 5.4
2015-Jun-30 07:33N 41°17' W 071°34'5 4.8
2015-Jun-30 06:34N 41°18' W 071°28'4 3.9
2015-Jun-30 05:33N 41°20' W 071°23'4 4.1
2015-Jun-30 04:33N 41°21' W 071°18'4 3.8
2015-Jun-30 03:33N 41°23' W 071°14'4 4.1
2015-Jun-30 02:33N 41°25' W 071°09'5 4.6
2015-Jun-30 01:33N 41°26' W 071°03'5 4.7
2015-Jun-30 00:33N 41°29' W 070°58'5 4.9
2015-Jun-29 23:33N 41°32' W 070°53'7 0.3
2015-Jun-28 22:22N 41°39' W 070°55'  
Track history (hours):
 
Tides and Currents Weather Stations Pressure Air Temp Water Temp Dewpoint Dewpoint Depression Visibility Wind Speed Wind Dir Waves Ship Positions

Sirius

Owner: TISBURY TOWING AND TRANSPORTATION INC, TISBURY, MA. More information available from US FCC via Universal Licensing System and Coast Guard Vessel Documentation Center.

Last reported at 2015-Jul-08 06:34 UTC. Time now 2015-Jul-08 06:37 UTC.
Position N 41°31' W 070°38'.

Length 19 m; draft 1.9 m.

Type: Towing. MMSI: 367181040.

Date/timePositionNaut miles runAvg speedWind from/ knotsBaromVisibWave heightAir tempDewpointWater temp
2015-Jul-08 06:34N 41°31' W 070°38'4 1.3
2015-Jul-08 03:33N 41°27' W 070°36'0 0.0
2015-Jul-08 02:26N 41°27' W 070°36'0 0.0
2015-Jul-08 01:31N 41°27' W 070°36'0 0.0
2015-Jul-08 00:25N 41°27' W 070°36'0 0.0
2015-Jul-07 23:31N 41°27' W 070°36'0 0.0
2015-Jul-07 22:29N 41°27' W 070°36'1 0.9
2015-Jul-07 21:33N 41°28' W 070°35'5 5.0
2015-Jul-07 20:33N 41°31' W 070°41'6 6.4
2015-Jul-07 19:33N 41°33' W 070°49'6 6.1
2015-Jul-07 18:33N 41°38' W 070°54'2 1.5
2015-Jul-07 17:31N 41°39' W 070°55'10 2.6
2015-Jul-07 13:33N 41°32' W 070°45'8 6.4
2015-Jul-07 12:15N 41°27' W 070°36'0 0.0
2015-Jul-07 11:28N 41°27' W 070°36'0 0.0
2015-Jul-07 10:33N 41°27' W 070°36'0 0.0
2015-Jul-07 09:33N 41°27' W 070°36'0 0.0
2015-Jul-07 08:33N 41°27' W 070°36'0 0.0
2015-Jul-07 07:31N 41°27' W 070°36'0 0.0
2015-Jul-07 06:33N 41°27' W 070°36'0 0.0
2015-Jul-07 05:33N 41°27' W 070°36'0 0.0
2015-Jul-07 04:33N 41°27' W 070°36'0 0.0
2015-Jul-07 03:33N 41°27' W 070°36'0 0.0
2015-Jul-07 02:33N 41°27' W 070°36'0 0.0
2015-Jul-07 01:33N 41°27' W 070°36'0 0.0
2015-Jul-07 00:32N 41°27' W 070°36'0 0.0
2015-Jul-06 23:33N 41°27' W 070°36'0 0.0
2015-Jul-06 22:33N 41°27' W 070°36'0 0.0
2015-Jul-06 21:33N 41°27' W 070°36'0 0.0
2015-Jul-06 20:33N 41°27' W 070°36'0 0.0
2015-Jul-06 19:32N 41°27' W 070°36'0 0.0
2015-Jul-06 18:33N 41°27' W 070°36'0 0.0
2015-Jul-06 17:33N 41°27' W 070°36'0 0.0
2015-Jul-06 16:33N 41°27' W 070°36'0 0.0
2015-Jul-06 15:33N 41°27' W 070°36'0 0.0
2015-Jul-06 14:33N 41°27' W 070°36'0 0.0
2015-Jul-06 13:33N 41°27' W 070°36'0 0.0
2015-Jul-06 12:33N 41°27' W 070°36'  
2015-Jul-03 16:29N 41°27' W 070°36'0 0.0
2015-Jul-03 14:13N 41°27' W 070°36'0 0.0
2015-Jul-03 11:33N 41°27' W 070°36'0 0.0
2015-Jul-03 10:33N 41°27' W 070°36'0 0.0
2015-Jul-03 09:33N 41°27' W 070°36'0 0.0
2015-Jul-03 08:22N 41°27' W 070°36'0 0.0
2015-Jul-03 07:33N 41°27' W 070°36'0 0.0
2015-Jul-03 06:33N 41°27' W 070°36'0 0.0
2015-Jul-03 05:33N 41°27' W 070°36'0 0.0
2015-Jul-03 04:31N 41°27' W 070°36'7 6.9
2015-Jul-03 03:33N 41°32' W 070°42'11 4.4
2015-Jul-03 01:06N 41°38' W 070°55'3 5.0
2015-Jul-03 00:33N 41°35' W 070°53'6 6.5
2015-Jul-02 23:33N 41°29' W 070°57'7 7.2
2015-Jul-02 22:33N 41°26' W 071°05'6 6.3
2015-Jul-02 21:33N 41°23' W 071°13'6 6.2
2015-Jul-02 20:33N 41°21' W 071°20'7 6.6
2015-Jul-02 19:33N 41°18' W 071°29'7 6.9
2015-Jul-02 18:33N 41°17' W 071°37'7 6.8
2015-Jul-02 17:33N 41°15' W 071°46'7 6.7
2015-Jul-02 16:33N 41°13' W 071°55'6 6.2
2015-Jul-02 15:33N 41°11' W 072°02'6 5.7
2015-Jul-02 14:33N 41°09' W 072°09'4 4.2
2015-Jul-02 13:33N 41°05' W 072°08'2 1.7
2015-Jul-02 12:33N 41°05' W 072°06'0 0.0
2015-Jul-02 11:33N 41°05' W 072°06'0 0.0
2015-Jul-02 10:33N 41°05' W 072°06'0 0.0
2015-Jul-02 09:33N 41°05' W 072°06'0 0.0
2015-Jul-02 08:33N 41°05' W 072°06'0 0.0
2015-Jul-02 07:33N 41°05' W 072°06'0 0.0
2015-Jul-02 06:33N 41°05' W 072°06'0 0.0
2015-Jul-02 05:33N 41°05' W 072°06'0 0.0
2015-Jul-02 04:33N 41°05' W 072°06'0 0.0
2015-Jul-02 03:33N 41°05' W 072°06'0 0.0
2015-Jul-02 02:33N 41°05' W 072°06'0 0.0
2015-Jul-02 01:33N 41°05' W 072°06'0 0.0
2015-Jul-02 00:33N 41°05' W 072°06'0 0.0
2015-Jul-01 23:33N 41°05' W 072°06'0 0.0
2015-Jul-01 22:33N 41°05' W 072°06'0 0.0
2015-Jul-01 21:33N 41°05' W 072°06'0 0.0
2015-Jul-01 20:33N 41°05' W 072°06'0 0.0
2015-Jul-01 19:33N 41°05' W 072°06'0 0.0
2015-Jul-01 18:33N 41°05' W 072°06'0 0.0
2015-Jul-01 17:33N 41°05' W 072°06'0 0.0
2015-Jul-01 16:33N 41°05' W 072°06'0 0.0
2015-Jul-01 15:33N 41°05' W 072°06'0 0.0
2015-Jul-01 14:33N 41°05' W 072°06'0 0.0
2015-Jul-01 13:33N 41°05' W 072°06'0 0.0
2015-Jul-01 12:33N 41°05' W 072°06'0 0.0
2015-Jul-01 11:33N 41°05' W 072°06'0 0.0
2015-Jul-01 10:32N 41°05' W 072°06'0 0.0
2015-Jul-01 09:33N 41°05' W 072°06'0 0.0
2015-Jul-01 08:33N 41°05' W 072°06'0 0.0
2015-Jul-01 07:33N 41°05' W 072°06'0 0.0
2015-Jul-01 06:33N 41°05' W 072°06'0 0.0
2015-Jul-01 05:17N 41°05' W 072°06'0 0.0
2015-Jul-01 04:33N 41°05' W 072°06'0 0.0
2015-Jul-01 03:33N 41°05' W 072°06'0 0.0
2015-Jul-01 02:33N 41°05' W 072°06'0 0.0
2015-Jul-01 01:33N 41°05' W 072°06'0 0.0
2015-Jul-01 00:33N 41°05' W 072°06'0 0.0
2015-Jun-30 23:33N 41°05' W 072°06'0 0.0
2015-Jun-30 22:33N 41°05' W 072°06'0 0.0
2015-Jun-30 21:33N 41°05' W 072°06'0 0.0
2015-Jun-30 20:33N 41°05' W 072°06'0 0.0
2015-Jun-30 19:33N 41°05' W 072°06'0 0.0
2015-Jun-30 18:33N 41°05' W 072°06'0 0.0
2015-Jun-30 17:33N 41°05' W 072°06'0 0.0
2015-Jun-30 16:33N 41°05' W 072°06'0 0.0
2015-Jun-30 15:21N 41°05' W 072°06'0 0.0
2015-Jun-30 14:33N 41°05' W 072°06'2 1.9
2015-Jun-30 13:33N 41°04' W 072°09'3 3.3
2015-Jun-30 12:34N 41°08' W 072°10'6 5.8
2015-Jun-30 11:33N 41°11' W 072°03'7 6.5
2015-Jun-30 10:33N 41°12' W 071°55'6 5.6
2015-Jun-30 09:33N 41°14' W 071°48'5 5.3
2015-Jun-30 08:33N 41°15' W 071°41'5 5.4
2015-Jun-30 07:33N 41°17' W 071°34'5 4.8
2015-Jun-30 06:34N 41°18' W 071°28'4 3.9
2015-Jun-30 05:33N 41°20' W 071°23'4 4.1
2015-Jun-30 04:33N 41°21' W 071°18'4 3.8
2015-Jun-30 03:33N 41°23' W 071°14'4 4.1
2015-Jun-30 02:33N 41°25' W 071°09'5 4.6
2015-Jun-30 01:33N 41°26' W 071°03'5 4.7
2015-Jun-30 00:33N 41°29' W 070°58'5 4.9
2015-Jun-29 23:33N 41°32' W 070°53'7 0.3
2015-Jun-28 22:22N 41°39' W 070°55'  

Dump ship's entire track history